Time;durP1;ratioP1;P1;durP2;ratioP2;P2;SDS_P1;SDS_P2;PMS_P1;PMS_P2;Temp;Humidity;BMP_temperature;BMP_pressure;BME280_temperature;BME280_humidity;BME280_pressure;Samples;Min_cycle;Max_cycle;Signal;HPM_P1;HPM_P2
2021/01/21 00:01:19;;;;;;;4.80;3.03;;;8.90;99.90;;;;;;6161663;23;20403;-79
2021/01/21 00:03:47;;;;;;;2.23;2.03;;;9.00;99.90;;;;;;6164868;23;20195;-79
2021/01/21 00:06:14;;;;;;;4.97;2.60;;;9.00;99.90;;;;;;6164341;23;20425;-79
2021/01/21 00:08:42;;;;;;;4.93;2.55;;;9.00;99.90;;;;;;6162946;23;20434;-79
2021/01/21 00:11:11;;;;;;;3.23;2.03;;;9.00;99.90;;;;;;6164446;23;20578;-79
2021/01/21 00:13:39;;;;;;;5.70;2.70;;;9.00;99.90;;;;;;6200005;23;20420;-79
2021/01/21 00:16:06;;;;;;;3.83;2.53;;;9.00;99.90;;;;;;6200131;23;20438;-79
2021/01/21 00:18:34;;;;;;;5.00;2.67;;;9.00;99.90;;;;;;6200584;23;20925;-79
2021/01/21 00:21:01;;;;;;;4.57;2.47;;;9.00;99.90;;;;;;6163567;23;20423;-79
2021/01/21 00:23:30;;;;;;;5.20;2.23;;;9.00;99.90;;;;;;6164343;23;20496;-79
2021/01/21 00:25:58;;;;;;;2.70;2.17;;;9.00;99.90;;;;;;6164214;23;20755;-79
2021/01/21 00:28:25;;;;;;;3.60;2.30;;;9.00;99.90;;;;;;6200495;23;20461;-79
2021/01/21 00:30:53;;;;;;;3.57;2.00;;;9.00;99.90;;;;;;6164878;23;20442;-79
2021/01/21 00:33:21;;;;;;;3.20;2.10;;;9.00;99.90;;;;;;6164237;23;20423;-79
2021/01/21 00:35:48;;;;;;;3.03;2.07;;;9.00;99.90;;;;;;6164293;23;20407;-79
2021/01/21 00:38:15;;;;;;;2.17;1.80;;;9.00;99.90;;;;;;6164728;23;20851;-79
2021/01/21 00:40:43;;;;;;;3.00;2.03;;;9.10;99.90;;;;;;6163966;23;20411;-79
2021/01/21 00:43:10;;;;;;;3.30;2.73;;;9.10;99.90;;;;;;6163936;23;20419;-79
2021/01/21 00:45:37;;;;;;;3.50;2.30;;;9.10;99.90;;;;;;6200215;23;20446;-79
2021/01/21 00:48:06;;;;;;;4.00;2.50;;;9.10;99.90;;;;;;6162707;23;20422;-79
2021/01/21 00:50:33;;;;;;;3.83;2.53;;;9.10;99.90;;;;;;6163162;23;20419;-79
2021/01/21 00:53:01;;;;;;;3.37;2.30;;;9.10;99.90;;;;;;6162450;23;20415;-79
2021/01/21 00:55:28;;;;;;;3.80;2.60;;;9.10;99.90;;;;;;6199817;23;20391;-79
2021/01/21 00:57:55;;;;;;;4.73;2.10;;;9.10;99.90;;;;;;6199696;23;20399;-79
2021/01/21 01:00:23;;;;;;;3.83;2.30;;;9.10;99.90;;;;;;6164008;23;20434;-79
2021/01/21 01:02:50;;;;;;;2.50;2.17;;;9.10;99.90;;;;;;6162753;23;20477;-79
2021/01/21 01:05:19;;;;;;;2.80;2.27;;;9.10;99.90;;;;;;6163127;23;20435;-79
2021/01/21 01:07:47;;;;;;;5.13;2.50;;;9.10;99.90;;;;;;6163344;23;20411;-79
2021/01/21 01:10:18;;;;;;;2.90;2.13;;;9.10;99.90;;;;;;6163381;23;20447;-79
2021/01/21 01:12:45;;;;;;;2.63;2.07;;;9.10;99.90;;;;;;6163449;23;20751;-79
2021/01/21 01:15:15;;;;;;;4.23;2.20;;;9.10;99.90;;;;;;6199593;23;20427;-79
2021/01/21 01:17:45;;;;;;;3.80;2.30;;;9.10;99.90;;;;;;6199958;23;20963;-78
2021/01/21 01:20:13;;;;;;;5.00;2.57;;;9.10;99.90;;;;;;6163568;23;20752;-78
2021/01/21 01:22:41;;;;;;;4.20;2.27;;;9.10;99.90;;;;;;6163911;23;20942;-78
2021/01/21 01:25:09;;;;;;;3.50;2.40;;;9.10;99.90;;;;;;6163897;23;20492;-78
2021/01/21 01:27:37;;;;;;;2.47;2.27;;;9.10;99.90;;;;;;6163082;23;20759;-79
2021/01/21 01:30:05;;;;;;;4.70;2.60;;;9.00;99.90;;;;;;6198942;23;20423;-79
2021/01/21 01:32:34;;;;;;;2.60;2.20;;;9.00;99.90;;;;;;6198809;23;20424;-79
2021/01/21 01:35:02;;;;;;;3.33;2.57;;;9.00;99.90;;;;;;6162057;23;20412;-79
2021/01/21 01:37:29;;;;;;;2.80;2.23;;;9.00;99.90;;;;;;6161581;23;20439;-79
2021/01/21 01:40:04;;;;;;;3.00;2.17;;;9.00;99.90;;;;;;6162351;23;20449;-79
2021/01/21 01:42:38;;;;;;;7.03;2.60;;;8.90;99.90;;;;;;6161746;23;20494;-79
2021/01/21 01:45:10;;;;;;;4.00;2.60;;;8.90;99.90;;;;;;6161201;23;20527;-79
2021/01/21 01:47:41;;;;;;;3.10;2.25;;;8.90;99.90;;;;;;6162222;23;20443;-79
2021/01/21 01:50:10;;;;;;;3.20;2.03;;;8.90;99.90;;;;;;6162915;23;20192;-79
2021/01/21 01:52:41;;;;;;;8.20;2.70;;;8.90;99.90;;;;;;6160814;23;20474;-78
2021/01/21 01:55:22;;;;;;;4.20;2.47;;;8.90;99.90;;;;;;6197438;23;20405;-78
2021/01/21 01:58:02;;;;;;;3.00;2.33;;;8.90;99.90;;;;;;6162349;23;20473;-78
2021/01/21 02:00:41;;;;;;;2.73;2.43;;;8.90;99.90;;;;;;6199145;23;20413;-78
2021/01/21 02:03:09;;;;;;;4.10;2.17;;;8.90;99.90;;;;;;6162317;23;20454;-78
2021/01/21 02:05:43;;;;;;;2.83;2.40;;;8.80;99.90;;;;;;6162633;23;20788;-78
2021/01/21 02:08:11;;;;;;;3.37;2.00;;;8.80;99.90;;;;;;6163629;23;20446;-78
2021/01/21 02:10:39;;;;;;;3.43;2.50;;;8.80;99.90;;;;;;6161927;23;20473;-78
2021/01/21 02:13:46;;;;;;;3.57;2.33;;;8.80;99.90;;;;;;6163493;23;20408;-78
2021/01/21 02:16:40;;;;;;;5.80;2.60;;;8.80;99.90;;;;;;6163719;23;20762;-79
2021/01/21 02:19:44;;;;;;;4.00;2.30;;;8.80;99.90;;;;;;6163658;23;20436;-79
2021/01/21 02:22:49;;;;;;;2.70;2.10;;;8.80;99.90;;;;;;6101950;23;20758;-79
2021/01/21 02:25:24;;;;;;;3.80;2.67;;;8.70;99.90;;;;;;6161072;23;20758;-79
2021/01/21 02:28:31;;;;;;;3.27;2.47;;;8.70;99.90;;;;;;6161059;23;20454;-79
2021/01/21 02:31:03;;;;;;;2.30;2.10;;;8.70;99.90;;;;;;6198414;23;20395;-79
2021/01/21 02:33:53;;;;;;;3.87;2.57;;;8.70;99.90;;;;;;6163490;23;20419;-79
2021/01/21 02:36:26;;;;;;;2.90;2.43;;;8.60;99.90;;;;;;6198196;23;20469;-79
2021/01/21 02:38:56;;;;;;;2.30;1.90;;;8.60;99.90;;;;;;6161188;23;20438;-79
2021/01/21 02:41:25;;;;;;;2.80;2.60;;;8.60;99.90;;;;;;6161781;23;20435;-79
2021/01/21 02:43:54;;;;;;;2.87;1.90;;;8.60;99.90;;;;;;6197303;23;20454;-79
2021/01/21 02:46:23;;;;;;;5.90;2.57;;;8.60;99.90;;;;;;6161211;23;20449;-78
2021/01/21 02:48:54;;;;;;;2.80;2.37;;;8.50;99.90;;;;;;6161761;23;20476;-78
2021/01/21 02:51:40;;;;;;;3.63;2.87;;;8.50;99.90;;;;;;6161205;23;20415;-79
2021/01/21 02:54:34;;;;;;;4.43;2.47;;;8.50;99.90;;;;;;6160678;23;20825;-79
2021/01/21 02:57:07;;;;;;;2.73;2.47;;;8.50;99.90;;;;;;6161121;23;20407;-79
2021/01/21 02:59:38;;;;;;;2.93;2.60;;;8.40;99.90;;;;;;6197287;23;20431;-78
2021/01/21 03:02:11;;;;;;;3.77;2.37;;;8.40;99.90;;;;;;6162159;23;20410;-78
2021/01/21 03:04:40;;;;;;;4.43;2.37;;;8.40;99.90;;;;;;6160991;23;20426;-79
2021/01/21 03:07:10;;;;;;;2.53;2.20;;;8.40;99.90;;;;;;6161287;23;20898;-79
2021/01/21 03:09:45;;;;;;;5.70;2.70;;;8.40;99.90;;;;;;6197411;23;20422;-79
2021/01/21 03:12:20;;;;;;;3.27;2.27;;;8.30;99.90;;;;;;6160393;23;20425;-79
2021/01/21 03:14:53;;;;;;;4.17;2.80;;;8.30;99.90;;;;;;6159960;23;20407;-79
2021/01/21 03:17:27;;;;;;;4.80;2.20;;;8.30;99.90;;;;;;6161054;23;20411;-79
2021/01/21 03:20:08;;;;;;;2.63;2.37;;;8.30;99.90;;;;;;6160647;23;20779;-79
2021/01/21 03:22:35;;;;;;;4.30;2.43;;;8.30;99.90;;;;;;6196942;23;20422;-79
2021/01/21 03:25:03;;;;;;;3.03;2.30;;;8.30;99.90;;;;;;6158847;23;20415;-79
2021/01/21 03:27:38;;;;;;;3.07;2.80;;;8.40;99.90;;;;;;6162061;23;20167;-79
2021/01/21 03:30:14;;;;;;;3.73;2.30;;;8.40;99.90;;;;;;6161405;23;20445;-79
2021/01/21 03:32:42;;;;;;;3.60;2.13;;;8.40;99.90;;;;;;6161113;23;20419;-79
2021/01/21 03:35:11;;;;;;;3.50;3.20;;;8.30;99.90;;;;;;6159756;23;20407;-79
2021/01/21 03:37:38;;;;;;;5.17;2.53;;;8.30;99.90;;;;;;6162315;23;20434;-79
2021/01/21 03:40:06;;;;;;;2.47;2.27;;;8.30;99.90;;;;;;6165330;23;20470;-79
2021/01/21 03:42:39;;;;;;;3.00;2.07;;;8.30;99.90;;;;;;6164456;23;20467;-80
2021/01/21 03:45:35;;;;;;;3.10;2.10;;;8.30;99.90;;;;;;6165099;23;20790;-79
2021/01/21 03:48:09;;;;;;;3.30;2.20;;;8.30;99.90;;;;;;6163230;23;20898;-79
2021/01/21 03:50:58;;;;;;;2.33;2.13;;;8.30;99.90;;;;;;6187534;23;20451;-78
2021/01/21 03:53:25;;;;;;;2.60;2.20;;;8.30;99.90;;;;;;6160777;23;20798;-78
2021/01/21 03:56:20;;;;;;;3.63;2.00;;;8.40;99.90;;;;;;6161339;23;20419;-79
2021/01/21 03:58:48;;;;;;;3.00;2.33;;;8.40;99.90;;;;;;6161613;23;20442;-79
2021/01/21 04:01:18;;;;;;;1.90;1.63;;;8.40;99.90;;;;;;6161806;23;20439;-79
2021/01/21 04:03:50;;;;;;;4.10;2.20;;;8.40;99.90;;;;;;6160794;23;20886;-79
2021/01/21 04:06:19;;;;;;;4.10;2.00;;;8.50;99.90;;;;;;6160777;23;20423;-79
2021/01/21 04:08:49;;;;;;;2.00;1.63;;;8.50;99.90;;;;;;6161250;23;20854;-79
2021/01/21 04:11:45;;;;;;;3.00;2.00;;;8.50;99.90;;;;;;6158465;23;20406;-79
2021/01/21 04:14:16;;;;;;;3.43;1.97;;;8.50;99.90;;;;;;6161359;23;20450;-79
2021/01/21 04:16:44;;;;;;;3.03;1.80;;;8.50;99.90;;;;;;6160658;23;20415;-78
2021/01/21 04:19:12;;;;;;;2.87;1.90;;;8.60;99.90;;;;;;6161497;23;20435;-78
2021/01/21 04:21:47;;;;;;;3.00;1.87;;;8.60;99.90;;;;;;6161633;23;20418;-78
2021/01/21 04:24:19;;;;;;;2.37;1.90;;;8.70;99.90;;;;;;6161072;23;20430;-79
2021/01/21 04:26:51;;;;;;;2.43;2.17;;;8.70;99.90;;;;;;6161558;23;20726;-79
2021/01/21 04:29:26;;;;;;;3.00;1.80;;;8.70;99.90;;;;;;6161429;23;20777;-79
2021/01/21 04:31:57;;;;;;;3.10;1.70;;;8.70;99.90;;;;;;6197697;23;20396;-79
2021/01/21 04:34:29;;;;;;;3.00;2.23;;;8.80;99.90;;;;;;6162385;23;20806;-79
2021/01/21 04:36:58;;;;;;;2.90;2.60;;;8.80;99.90;;;;;;6163135;23;20421;-79
2021/01/21 04:39:45;;;;;;;4.67;1.83;;;8.80;99.90;;;;;;6185601;23;20481;-79
2021/01/21 04:42:15;;;;;;;1.90;1.60;;;8.90;99.90;;;;;;6161847;23;20502;-79
2021/01/21 04:44:47;;;;;;;1.83;1.60;;;8.90;99.90;;;;;;6163516;23;20438;-79
2021/01/21 04:47:22;;;;;;;2.50;1.50;;;8.90;99.90;;;;;;6164234;23;20436;-78
2021/01/21 04:50:13;;;;;;;3.60;1.50;;;8.90;99.90;;;;;;6189879;23;20760;-79
2021/01/21 04:52:58;;;;;;;3.53;1.60;;;8.90;99.90;;;;;;6163916;23;20411;-79
2021/01/21 04:55:36;;;;;;;3.30;1.77;;;9.00;99.90;;;;;;6163672;23;20420;-79
2021/01/21 04:58:28;;;;;;;2.53;1.73;;;9.00;99.90;;;;;;6190372;23;20883;-79
2021/01/21 05:01:00;;;;;;;3.03;1.80;;;9.00;99.90;;;;;;6163048;23;20486;-79
2021/01/21 05:03:29;;;;;;;2.53;1.67;;;9.10;99.90;;;;;;6164623;23;20453;-79
2021/01/21 05:06:27;;;;;;;2.93;1.67;;;9.20;99.90;;;;;;6164590;23;20751;-79
2021/01/21 05:09:03;;;;;;;3.28;2.00;;;9.20;99.90;;;;;;6162389;23;20902;-79
2021/01/21 05:11:33;;;;;;;3.50;2.17;;;9.20;99.90;;;;;;6164288;23;20172;-79
2021/01/21 05:14:30;;;;;;;2.57;1.73;;;9.30;99.90;;;;;;6191436;23;20419;-79
2021/01/21 05:17:20;;;;;;;3.63;1.67;;;9.30;99.90;;;;;;6190593;23;20404;-79
2021/01/21 05:20:08;;;;;;;2.60;1.60;;;9.30;99.90;;;;;;6191168;23;20497;-79
2021/01/21 05:23:14;;;;;;;2.70;1.70;;;9.30;99.90;;;;;;6190730;23;20407;-79
2021/01/21 05:26:02;;;;;;;3.80;1.83;;;9.30;99.90;;;;;;6165554;23;20442;-79
2021/01/21 05:28:51;;;;;;;2.53;1.77;;;9.30;99.90;;;;;;6164373;23;20463;-79
2021/01/21 05:31:34;;;;;;;2.93;2.00;;;9.40;99.90;;;;;;6164036;23;20415;-79
2021/01/21 05:34:07;;;;;;;1.60;1.50;;;9.40;99.90;;;;;;6164038;23;20422;-78
2021/01/21 05:37:03;;;;;;;3.90;1.90;;;9.40;99.90;;;;;;6164046;23;20755;-78
2021/01/21 05:39:42;;;;;;;3.13;1.90;;;9.40;99.90;;;;;;6134183;23;20443;-78
2021/01/21 05:42:40;;;;;;;3.20;1.60;;;9.40;99.90;;;;;;6041913;23;20476;-78
2021/01/21 05:45:29;;;;;;;2.70;1.80;;;9.40;99.90;;;;;;6135003;23;20472;-78
2021/01/21 05:48:06;;;;;;;4.40;2.13;;;9.50;99.90;;;;;;6136074;23;20411;-79
2021/01/21 05:50:35;;;;;;;2.10;1.70;;;9.50;99.90;;;;;;6161126;23;20491;-79
2021/01/21 05:53:07;;;;;;;4.03;1.77;;;9.50;99.90;;;;;;6136063;23;20744;-79
2021/01/21 05:55:39;;;;;;;2.33;1.53;;;9.50;99.90;;;;;;6134065;23;20467;-79
2021/01/21 05:58:10;;;;;;;2.87;1.60;;;9.50;99.90;;;;;;6134151;23;20420;-79
2021/01/21 06:00:39;;;;;;;2.30;1.60;;;9.50;99.90;;;;;;6132975;23;20409;-79
2021/01/21 06:03:25;;;;;;;2.77;1.37;;;9.50;99.90;;;;;;6133010;23;20506;-79
2021/01/21 06:06:00;;;;;;;2.10;1.90;;;9.50;99.90;;;;;;6132787;23;20962;-79
2021/01/21 06:08:29;;;;;;;2.50;1.60;;;9.60;99.90;;;;;;6134796;23;20420;-79
2021/01/21 06:11:11;;;;;;;2.00;1.60;;;9.60;99.90;;;;;;6170169;23;20389;-79
2021/01/21 06:13:40;;;;;;;3.30;1.90;;;9.60;99.90;;;;;;6169049;23;20409;-79
2021/01/21 06:16:09;;;;;;;1.80;1.23;;;9.60;99.90;;;;;;6133185;23;20424;-79
2021/01/21 06:18:37;;;;;;;1.70;1.50;;;9.70;99.90;;;;;;6169437;23;20412;-79
2021/01/21 06:21:47;;;;;;;2.27;1.30;;;9.70;99.90;;;;;;6145910;23;20805;-78
2021/01/21 06:24:29;;;;;;;2.07;1.30;;;9.80;99.90;;;;;;6132983;23;20436;-78
2021/01/21 06:27:04;;;;;;;1.70;1.20;;;9.80;99.90;;;;;;6133553;23;20416;-78
2021/01/21 06:29:34;;;;;;;2.07;1.30;;;9.90;99.90;;;;;;6133392;23;20448;-78
2021/01/21 06:32:03;;;;;;;2.57;1.37;;;10.00;99.90;;;;;;6132098;23;20487;-78
2021/01/21 06:34:33;;;;;;;2.30;1.50;;;10.00;99.90;;;;;;6167342;23;20397;-78
2021/01/21 06:37:12;;;;;;;1.20;1.00;;;10.20;99.90;;;;;;6132267;23;20351;-79
2021/01/21 06:39:51;;;;;;;2.87;1.00;;;10.20;99.90;;;;;;6168010;23;20919;-79
2021/01/21 06:42:30;;;;;;;1.80;0.60;;;10.30;99.90;;;;;;6130796;23;20421;-78
2021/01/21 06:44:59;;;;;;;1.80;0.60;;;10.20;99.90;;;;;;6168369;23;20185;-78
2021/01/21 06:47:30;;;;;;;1.73;0.70;;;9.90;99.90;;;;;;6132897;23;20389;-78
2021/01/21 06:49:59;;;;;;;3.77;0.57;;;9.60;99.90;;;;;;6167657;23;20433;-78
2021/01/21 06:52:31;;;;;;;2.90;0.60;;;9.30;99.90;;;;;;6130849;23;20471;-78
2021/01/21 06:54:59;;;;;;;2.50;0.80;;;9.00;99.90;;;;;;6168230;23;20447;-78
2021/01/21 06:57:43;;;;;;;4.00;0.60;;;8.70;99.90;;;;;;6133250;23;20416;-79
2021/01/21 07:00:14;;;;;;;3.20;0.70;;;8.60;99.90;;;;;;6170952;23;20420;-79
2021/01/21 07:02:48;;;;;;;1.57;0.73;;;8.40;99.90;;;;;;6134811;23;20453;-79
2021/01/21 07:05:17;;;;;;;3.03;1.40;;;8.30;99.90;;;;;;6133103;23;20764;-79
2021/01/21 07:08:05;;;;;;;3.13;1.07;;;8.20;99.90;;;;;;6133817;23;20416;-79
2021/01/21 07:10:39;;;;;;;1.63;0.60;;;8.10;99.90;;;;;;6133915;23;20787;-79
2021/01/21 07:13:08;;;;;;;2.60;0.90;;;8.00;99.90;;;;;;6134792;23;20416;-79
2021/01/21 07:15:43;;;;;;;4.53;1.30;;;7.90;99.90;;;;;;6135030;23;20503;-79
2021/01/21 07:18:19;;;;;;;2.30;1.47;;;7.90;99.90;;;;;;6134978;23;20412;-79
2021/01/21 07:21:13;;;;;;;2.23;0.90;;;7.80;99.90;;;;;;6136030;23;20420;-79
2021/01/21 07:23:45;;;;;;;1.83;0.77;;;7.80;99.90;;;;;;6173629;23;20381;-78
2021/01/21 07:26:34;;;;;;;2.13;1.00;;;7.80;99.90;;;;;;6134017;23;20428;-78
2021/01/21 07:29:11;;;;;;;3.10;0.90;;;7.70;99.90;;;;;;6131419;23;20770;-79
2021/01/21 07:32:05;;;;;;;4.30;2.30;;;7.70;99.90;;;;;;6134531;23;20799;-79
2021/01/21 07:34:48;;;;;;;3.10;1.03;;;7.70;99.90;;;;;;6170149;23;20446;-79
2021/01/21 07:37:24;;;;;;;1.83;0.70;;;7.70;99.90;;;;;;6135896;23;20452;-79
2021/01/21 07:40:05;;;;;;;3.57;1.10;;;7.60;99.90;;;;;;6164707;23;20469;-79
2021/01/21 07:42:53;;;;;;;2.20;1.53;;;7.60;99.90;;;;;;6166124;23;20793;-78
2021/01/21 07:45:29;;;;;;;2.77;1.80;;;7.60;99.90;;;;;;6163794;23;20445;-79
2021/01/21 07:48:18;;;;;;;3.67;1.70;;;7.60;99.90;;;;;;6200454;23;20497;-79
2021/01/21 07:50:46;;;;;;;3.27;1.60;;;7.60;99.90;;;;;;6200591;23;20438;-79
2021/01/21 07:53:24;;;;;;;3.57;1.57;;;7.50;99.90;;;;;;6163937;23;20468;-79
2021/01/21 07:55:53;;;;;;;2.23;1.30;;;7.60;99.90;;;;;;6164079;23;20861;-79
2021/01/21 07:58:22;;;;;;;3.13;1.47;;;7.50;99.90;;;;;;6200439;23;20407;-79
2021/01/21 08:00:50;;;;;;;2.47;1.50;;;7.50;99.90;;;;;;6200752;23;20471;-79
2021/01/21 08:03:28;;;;;;;2.53;1.30;;;7.60;99.90;;;;;;6164795;23;20410;-80
2021/01/21 08:06:10;;;;;;;3.83;1.70;;;7.60;99.90;;;;;;6204644;23;20418;-79
2021/01/21 08:08:38;;;;;;;2.90;1.83;;;7.60;99.90;;;;;;6162490;23;20945;-79
2021/01/21 08:11:06;;;;;;;5.67;1.70;;;7.60;99.90;;;;;;6162585;23;20423;-79
2021/01/21 08:13:34;;;;;;;5.20;1.50;;;7.50;99.90;;;;;;6199152;23;20721;-79
2021/01/21 08:16:01;;;;;;;2.43;1.63;;;7.50;99.90;;;;;;6199190;23;20430;-79
2021/01/21 08:18:29;;;;;;;3.10;1.70;;;7.50;99.90;;;;;;6162006;23;20747;-79
2021/01/21 08:20:57;;;;;;;2.07;1.23;;;7.60;99.90;;;;;;6164173;23;20196;-79
2021/01/21 08:23:24;;;;;;;3.90;1.53;;;7.60;99.90;;;;;;6201135;23;20459;-79
2021/01/21 08:25:54;;;;;;;2.50;1.40;;;7.60;99.90;;;;;;6163605;23;20767;-79
2021/01/21 08:28:22;;;;;;;4.87;2.30;;;7.60;99.90;;;;;;6164250;23;20183;-79
2021/01/21 08:30:50;;;;;;;3.27;1.53;;;7.60;99.90;;;;;;6165102;23;20427;-79
2021/01/21 08:33:21;;;;;;;3.23;1.77;;;7.60;99.90;;;;;;6164603;23;20414;-79
2021/01/21 08:35:52;;;;;;;4.93;2.00;;;7.60;99.90;;;;;;6165388;23;20859;-79
2021/01/21 08:38:23;;;;;;;3.53;1.93;;;7.60;99.90;;;;;;6201365;23;20418;-79
2021/01/21 08:40:52;;;;;;;4.33;1.57;;;7.60;99.90;;;;;;6201930;23;20442;-79
2021/01/21 08:43:21;;;;;;;2.97;1.70;;;7.60;99.90;;;;;;6163592;23;20729;-79
2021/01/21 08:45:48;;;;;;;3.77;2.17;;;7.60;99.90;;;;;;6162981;23;21005;-78
2021/01/21 08:48:26;;;;;;;3.50;2.33;;;7.60;99.90;;;;;;6163330;23;20412;-78
2021/01/21 08:50:54;;;;;;;2.13;1.60;;;7.60;99.90;;;;;;6163002;23;20508;-78
2021/01/21 08:53:23;;;;;;;5.03;1.90;;;7.60;99.90;;;;;;6199871;23;20386;-78
2021/01/21 08:55:51;;;;;;;2.70;1.70;;;7.60;99.90;;;;;;6199832;23;20401;-78
2021/01/21 08:58:20;;;;;;;5.13;2.33;;;7.60;99.90;;;;;;6163679;23;20502;-78
2021/01/21 09:01:03;;;;;;;2.53;1.30;;;7.60;99.90;;;;;;6162883;23;20426;-78
2021/01/21 09:03:36;;;;;;;4.00;1.90;;;7.60;99.90;;;;;;6199548;23;20385;-78
2021/01/21 09:06:06;;;;;;;3.67;1.53;;;7.60;99.90;;;;;;6162667;23;20505;-78
2021/01/21 09:08:49;;;;;;;3.30;1.57;;;7.60;99.90;;;;;;6162646;23;20570;-78
2021/01/21 09:11:27;;;;;;;3.20;1.87;;;7.70;99.90;;;;;;6200079;23;20421;-78
2021/01/21 09:13:55;;;;;;;3.00;1.20;;;7.70;99.90;;;;;;6199641;23;20417;-78
2021/01/21 09:16:40;;;;;;;3.37;1.63;;;7.70;99.90;;;;;;6197843;23;20482;-78
2021/01/21 09:19:09;;;;;;;2.80;1.37;;;7.70;99.90;;;;;;6163434;23;20434;-79
2021/01/21 09:21:38;;;;;;;2.97;1.40;;;7.70;99.90;;;;;;6201757;23;20464;-79
2021/01/21 09:24:07;;;;;;;2.90;1.57;;;7.70;99.90;;;;;;6163338;23;20422;-78
2021/01/21 09:26:34;;;;;;;3.60;1.50;;;7.80;99.90;;;;;;6198780;23;20517;-78
2021/01/21 09:29:02;;;;;;;5.20;2.03;;;7.80;99.90;;;;;;6198860;23;20423;-79
2021/01/21 09:31:31;;;;;;;2.13;1.23;;;7.80;99.90;;;;;;6201014;23;20929;-79
2021/01/21 09:33:59;;;;;;;3.90;1.87;;;7.80;99.90;;;;;;6164544;23;20891;-79
2021/01/21 09:36:28;;;;;;;3.17;1.50;;;7.70;99.90;;;;;;6201462;23;20411;-79
2021/01/21 09:38:57;;;;;;;3.80;1.77;;;7.80;99.90;;;;;;6164078;23;20485;-79
2021/01/21 09:41:24;;;;;;;2.60;1.70;;;7.90;99.90;;;;;;6165111;23;20432;-79
2021/01/21 09:43:52;;;;;;;2.60;1.53;;;7.90;99.90;;;;;;6165392;23;20418;-79
2021/01/21 09:46:22;;;;;;;3.40;1.80;;;7.90;99.90;;;;;;6163997;23;20434;-78
2021/01/21 09:48:49;;;;;;;4.13;1.97;;;7.90;99.90;;;;;;6164429;23;20493;-79
2021/01/21 09:51:16;;;;;;;2.47;1.47;;;7.90;99.90;;;;;;6202570;23;20387;-79
2021/01/21 09:53:43;;;;;;;2.60;1.70;;;8.00;99.90;;;;;;6163551;23;20421;-78
2021/01/21 09:56:11;;;;;;;2.80;1.33;;;8.10;99.90;;;;;;6165309;23;20168;-79
2021/01/21 09:58:39;;;;;;;4.97;1.80;;;8.00;99.90;;;;;;6165900;23;20811;-79
2021/01/21 10:01:06;;;;;;;4.63;2.30;;;8.10;99.90;;;;;;6201915;23;20422;-79
2021/01/21 10:03:48;;;;;;;3.20;1.70;;;8.10;99.90;;;;;;6167213;23;20250;-78
2021/01/21 10:06:16;;;;;;;2.47;1.47;;;8.10;99.90;;;;;;6173046;23;20459;-79
2021/01/21 10:08:43;;;;;;;4.80;1.63;;;8.20;99.90;;;;;;6162198;23;20443;-78
2021/01/21 10:11:11;;;;;;;6.10;2.00;;;8.10;99.90;;;;;;6198386;23;20393;-78
2021/01/21 10:13:38;;;;;;;4.03;1.87;;;8.10;99.90;;;;;;6162534;23;20461;-78
2021/01/21 10:16:06;;;;;;;3.80;1.70;;;8.10;99.90;;;;;;6162368;23;20824;-78
2021/01/21 10:18:34;;;;;;;3.00;1.70;;;8.10;99.90;;;;;;6162131;23;20456;-78
2021/01/21 10:21:02;;;;;;;5.53;1.60;;;8.20;99.90;;;;;;6162697;23;20462;-78
2021/01/21 10:23:29;;;;;;;4.73;1.60;;;8.20;99.90;;;;;;6162627;23;20499;-78
2021/01/21 10:25:56;;;;;;;3.80;1.90;;;8.20;99.90;;;;;;6198971;23;20481;-78
2021/01/21 10:28:24;;;;;;;5.27;1.60;;;8.20;99.90;;;;;;6161839;23;20419;-78
2021/01/21 10:30:51;;;;;;;2.67;1.73;;;8.20;99.90;;;;;;6199026;23;20479;-78
2021/01/21 10:33:19;;;;;;;3.07;1.70;;;8.20;99.90;;;;;;6161868;23;20477;-78
2021/01/21 10:35:46;;;;;;;3.23;1.50;;;8.20;99.90;;;;;;6161737;23;20408;-78
2021/01/21 10:38:13;;;;;;;3.30;1.80;;;8.20;99.90;;;;;;6161321;23;20431;-78
2021/01/21 10:40:40;;;;;;;2.87;1.53;;;8.20;99.90;;;;;;6198532;23;20405;-79
2021/01/21 10:43:08;;;;;;;4.37;1.67;;;8.20;99.90;;;;;;6161552;23;20485;-78
2021/01/21 10:45:36;;;;;;;3.83;2.13;;;8.20;99.90;;;;;;6160817;23;20439;-78
2021/01/21 10:48:03;;;;;;;3.70;1.30;;;8.20;99.90;;;;;;6198264;23;20439;-78
2021/01/21 10:50:31;;;;;;;2.70;1.77;;;8.20;99.90;;;;;;6161636;23;20851;-78
2021/01/21 10:52:58;;;;;;;3.67;1.77;;;8.30;99.90;;;;;;6162505;23;20497;-78
2021/01/21 10:55:26;;;;;;;2.37;1.60;;;8.20;99.90;;;;;;6161784;23;20754;-78
2021/01/21 10:57:54;;;;;;;5.50;1.90;;;8.20;99.90;;;;;;6161606;23;20929;-78
2021/01/21 11:00:21;;;;;;;3.70;2.03;;;8.20;99.90;;;;;;6161426;23;20470;-79
2021/01/21 11:02:50;;;;;;;2.90;1.50;;;8.30;99.90;;;;;;6160966;23;20406;-78
2021/01/21 11:05:17;;;;;;;4.27;1.70;;;8.30;99.90;;;;;;6198027;23;20521;-78
2021/01/21 11:07:44;;;;;;;4.33;2.00;;;8.30;99.90;;;;;;6198004;23;20453;-78
2021/01/21 11:10:13;;;;;;;3.17;1.90;;;8.40;99.90;;;;;;6162241;23;20466;-78
2021/01/21 11:12:48;;;;;;;4.60;1.57;;;8.40;99.90;;;;;;6161577;23;20403;-78
2021/01/21 11:15:16;;;;;;;3.30;1.70;;;8.40;99.90;;;;;;6197694;23;20399;-78
2021/01/21 11:17:44;;;;;;;6.53;1.67;;;8.40;99.90;;;;;;6161382;23;20423;-78
2021/01/21 11:20:14;;;;;;;5.53;1.80;;;8.50;99.90;;;;;;6197996;23;20506;-78
2021/01/21 11:22:41;;;;;;;6.20;2.13;;;8.50;99.90;;;;;;6198006;23;20402;-79
2021/01/21 11:25:10;;;;;;;4.03;1.63;;;8.60;99.90;;;;;;6162030;23;20929;-79
2021/01/21 11:27:58;;;;;;;3.80;1.60;;;8.60;99.90;;;;;;6197353;23;20494;-79
2021/01/21 11:30:25;;;;;;;4.90;1.80;;;8.70;99.90;;;;;;6161792;23;20443;-79
2021/01/21 11:32:53;;;;;;;4.37;2.17;;;8.70;99.90;;;;;;6161874;23;20443;-79
2021/01/21 11:35:21;;;;;;;4.40;2.00;;;8.70;99.90;;;;;;6196848;23;20404;-78
2021/01/21 11:37:48;;;;;;;4.17;1.20;;;8.70;99.90;;;;;;6198127;23;20247;-78
2021/01/21 11:40:16;;;;;;;6.53;1.90;;;8.70;99.90;;;;;;6161973;23;20438;-79
2021/01/21 11:42:43;;;;;;;5.07;2.30;;;8.70;99.90;;;;;;6161956;23;20491;-78
2021/01/21 11:45:10;;;;;;;3.70;1.60;;;8.70;99.90;;;;;;6198031;23;20457;-78
2021/01/21 11:47:39;;;;;;;4.33;1.50;;;8.70;99.90;;;;;;6198616;23;20446;-78
2021/01/21 11:50:12;;;;;;;4.00;1.57;;;8.70;99.90;;;;;;6198756;23;20433;-79
2021/01/21 11:52:41;;;;;;;5.07;2.07;;;8.70;99.90;;;;;;6161554;23;20731;-79
2021/01/21 11:55:09;;;;;;;5.17;1.60;;;8.70;99.90;;;;;;6199165;23;20406;-79
2021/01/21 11:57:37;;;;;;;3.90;1.87;;;8.80;99.90;;;;;;6162880;23;20426;-79
2021/01/21 12:00:06;;;;;;;4.57;1.80;;;8.70;99.90;;;;;;6163826;23;20438;-79
2021/01/21 12:02:34;;;;;;;4.87;1.57;;;8.70;99.90;;;;;;6161585;23;20426;-79
2021/01/21 12:05:01;;;;;;;5.37;1.67;;;8.80;99.90;;;;;;6199711;23;20791;-78
2021/01/21 12:07:28;;;;;;;4.23;1.47;;;8.70;99.90;;;;;;6163498;23;20450;-78
2021/01/21 12:09:59;;;;;;;5.70;1.80;;;8.80;99.90;;;;;;6198449;23;20485;-78
2021/01/21 12:12:27;;;;;;;4.77;1.53;;;8.80;99.90;;;;;;6162319;23;20449;-79
2021/01/21 12:14:54;;;;;;;3.10;1.60;;;8.80;99.90;;;;;;6198736;23;20462;-79
2021/01/21 12:17:21;;;;;;;4.10;2.10;;;8.80;99.90;;;;;;6198767;23;20424;-79
2021/01/21 12:19:49;;;;;;;8.53;2.13;;;8.70;99.90;;;;;;6199481;23;20480;-79
2021/01/21 12:22:16;;;;;;;5.57;2.13;;;8.70;99.90;;;;;;6199799;23;20486;-79
2021/01/21 12:24:43;;;;;;;5.23;1.43;;;8.80;99.90;;;;;;6163198;23;20812;-79
2021/01/21 12:27:11;;;;;;;3.00;1.47;;;8.80;99.90;;;;;;6163328;23;20502;-79
2021/01/21 12:29:38;;;;;;;4.57;1.13;;;8.80;99.90;;;;;;6163246;23;20465;-79
2021/01/21 12:32:05;;;;;;;3.73;1.33;;;8.80;99.90;;;;;;6163517;23;20498;-79
2021/01/21 12:34:33;;;;;;;6.60;1.70;;;8.80;99.90;;;;;;6162107;23;20414;-78
2021/01/21 12:37:00;;;;;;;4.40;1.50;;;8.80;99.90;;;;;;6199992;23;20470;-79
2021/01/21 12:39:28;;;;;;;3.63;1.63;;;8.80;99.90;;;;;;6163557;23;20458;-79
2021/01/21 12:41:55;;;;;;;4.17;1.67;;;8.80;99.90;;;;;;6164993;23;20427;-79
2021/01/21 12:44:23;;;;;;;4.73;1.70;;;8.80;99.90;;;;;;6165692;23;20476;-79
2021/01/21 12:46:50;;;;;;;3.70;1.47;;;8.90;99.90;;;;;;6163820;23;20439;-79
2021/01/21 12:49:18;;;;;;;6.80;1.77;;;8.90;99.90;;;;;;6161861;23;20473;-79
2021/01/21 12:51:45;;;;;;;4.97;1.43;;;8.90;99.90;;;;;;6163186;23;20418;-79
2021/01/21 12:54:12;;;;;;;2.93;1.43;;;8.90;99.90;;;;;;6162895;23;20414;-79
2021/01/21 12:56:39;;;;;;;5.50;1.60;;;8.90;99.90;;;;;;6161997;23;20435;-79
2021/01/21 12:59:06;;;;;;;6.03;1.80;;;8.90;99.90;;;;;;6162331;23;20819;-79
2021/01/21 13:01:37;;;;;;;4.40;1.60;;;8.90;99.90;;;;;;6163077;23;20792;-79
2021/01/21 13:04:04;;;;;;;4.93;1.70;;;9.00;99.90;;;;;;6164530;23;20234;-79
2021/01/21 13:06:31;;;;;;;2.97;1.40;;;9.00;99.90;;;;;;6165583;23;20435;-79
2021/01/21 13:08:59;;;;;;;4.63;1.67;;;9.00;99.90;;;;;;6165280;23;20422;-79
2021/01/21 13:11:26;;;;;;;3.87;1.50;;;9.00;99.90;;;;;;6167006;23;20192;-79
2021/01/21 13:13:53;;;;;;;4.47;1.70;;;8.90;99.90;;;;;;6203132;23;20712;-79
2021/01/21 13:16:20;;;;;;;4.37;1.57;;;8.90;99.90;;;;;;6173252;23;20506;-79
2021/01/21 13:18:49;;;;;;;4.60;1.40;;;8.90;99.90;;;;;;6164445;23;20471;-79
2021/01/21 13:21:18;;;;;;;4.27;1.93;;;8.90;99.90;;;;;;6163517;23;20431;-79
2021/01/21 13:23:46;;;;;;;5.80;2.57;;;8.90;99.90;;;;;;6199991;23;20399;-79
2021/01/21 13:26:13;;;;;;;2.80;1.47;;;9.00;99.90;;;;;;6199435;23;20438;-78